Bookmark and Share
Track history (hours):
 

Mt Sveva

Last reported at 2014-Apr-18 23:04 UTC. Time now 2014-Apr-19 05:15 UTC.
Position N 37°02' E 002°13'.

Length 136 m; draft 8.7 m.

Type: Tanker. MMSI: 247359000.

NotesDate/timePositionNaut miles runAvg speedWind from/ knotsBaromVisibWave heightAir tempDewpointWater temp
2014-Apr-18 23:04N 37°02' E 002°13'611.3
2014-Apr-18 22:33N 37°03' E 002°21'1211.6
2014-Apr-18 21:32N 37°06' E 002°35'1312.7
2014-Apr-18 20:31N 37°08' E 002°51'1411.8
2014-Apr-18 19:20N 37°09' E 003°08'1311.4
2014-Apr-18 18:13N 37°11' E 003°24'811.9
2014-Apr-18 17:33N 37°12' E 003°34'1611.9
2014-Apr-18 16:14N 37°14' E 003°54'911.4
2014-Apr-18 15:29N 37°15' E 004°05'1111.4
2014-Apr-18 14:32N 37°16' E 004°18'36811.4
2014-Apr-17 06:17N 37°14' E 012°01'7811.5
2014-Apr-16 23:33N 36°53' E 013°35'1211.7
2014-Apr-16 22:33N 36°50' E 013°49'1211.9
2014-Apr-16 21:33N 36°47' E 014°03'1211.9
2014-Apr-16 20:33N 36°43' E 014°17'  
2014-Apr-11 06:31N 42°33' E 009°51'2511.5
2014-Apr-11 04:22N 42°56' E 009°40'911.3
2014-Apr-11 03:33N 43°05' E 009°35'1211.6
2014-Apr-11 02:33N 43°15' E 009°27'1211.6
2014-Apr-11 01:33N 43°25' E 009°20'1211.6
2014-Apr-11 00:33N 43°35' E 009°12'1211.6
2014-Apr-10 23:33N 43°45' E 009°04'1211.5
2014-Apr-10 22:33N 43°56' E 008°57'1211.8
2014-Apr-10 21:33N 44°07' E 008°53'1212.0
2014-Apr-10 20:33N 44°18' E 008°47'7 0.2
2014-Apr-09 08:26N 44°25' E 008°50'3 3.4
2014-Apr-09 07:33N 44°23' E 008°47'9 9.2
2014-Apr-09 06:33N 44°18' E 008°36'6 2.7
2014-Apr-09 04:15N 44°17' E 008°28'0 0.0
2014-Apr-09 03:30N 44°17' E 008°28'0 0.0
2014-Apr-09 02:30N 44°17' E 008°28'0 0.0
2014-Apr-09 01:33N 44°17' E 008°28'0 0.0
2014-Apr-09 00:27N 44°17' E 008°28'0 0.0
2014-Apr-08 23:33N 44°17' E 008°28'  

Dump ship's entire track history

sailing weather and tide predictions

Mt Sveva — IBEU — position and weather